National Weather Service Raw Text Product

Displaying AFOS PIL: TAFALO Received: 2018-02-14 05:26 UTC


838 
FTUS43 KDMX 140526
TAFALO
TAF
KALO 140526Z 1406/1506 16006KT 6SM BR SKC
     FM140800 19006KT 5SM BR FEW250
     FM141600 20009KT P6SM FEW230
     FM150000 21009KT P6SM SCT050
     FM150400 23008KT 4SM BR SCT040=